sensor_id;sensor_type;location;lat;lon;timestamp;temperature;humidity
56103;DHT22;41970;48.774;9.280;2023-04-01T00:00:30;10.70;99.90
56103;DHT22;41970;48.774;9.280;2023-04-01T00:02:56;10.70;99.90
56103;DHT22;41970;48.774;9.280;2023-04-01T00:05:22;10.70;99.90
56103;DHT22;41970;48.774;9.280;2023-04-01T00:07:50;10.70;99.90
56103;DHT22;41970;48.774;9.280;2023-04-01T00:10:16;10.70;99.90
56103;DHT22;41970;48.774;9.280;2023-04-01T00:12:43;10.70;99.90
56103;DHT22;41970;48.774;9.280;2023-04-01T00:15:11;10.60;99.90
56103;DHT22;41970;48.774;9.280;2023-04-01T00:17:37;10.60;99.90
56103;DHT22;41970;48.774;9.280;2023-04-01T00:20:04;10.60;99.90
56103;DHT22;41970;48.774;9.280;2023-04-01T00:22:30;10.60;99.90
56103;DHT22;41970;48.774;9.280;2023-04-01T00:24:55;10.70;99.90
56103;DHT22;41970;48.774;9.280;2023-04-01T00:27:21;10.70;99.90
56103;DHT22;41970;48.774;9.280;2023-04-01T00:29:47;10.70;99.90
56103;DHT22;41970;48.774;9.280;2023-04-01T00:32:14;10.70;99.90
56103;DHT22;41970;48.774;9.280;2023-04-01T00:34:40;10.70;99.90
56103;DHT22;41970;48.774;9.280;2023-04-01T00:37:07;10.80;99.90
56103;DHT22;41970;48.774;9.280;2023-04-01T00:39:34;10.70;99.90
56103;DHT22;41970;48.774;9.280;2023-04-01T00:42:01;10.70;99.90
56103;DHT22;41970;48.774;9.280;2023-04-01T00:44:30;10.70;99.90
56103;DHT22;41970;48.774;9.280;2023-04-01T00:46:56;10.70;99.90
56103;DHT22;41970;48.774;9.280;2023-04-01T00:49:25;10.70;99.90
56103;DHT22;41970;48.774;9.280;2023-04-01T00:51:55;10.70;99.90
56103;DHT22;41970;48.774;9.280;2023-04-01T00:54:22;10.70;99.90
56103;DHT22;41970;48.774;9.280;2023-04-01T00:57:00;10.60;99.90
56103;DHT22;41970;48.774;9.280;2023-04-01T00:59:30;10.70;99.90
56103;DHT22;41970;48.774;9.280;2023-04-01T01:01:56;10.60;99.90
56103;DHT22;41970;48.774;9.280;2023-04-01T01:10:02;10.70;99.90
56103;DHT22;41970;48.774;9.280;2023-04-01T01:12:45;10.60;99.90
56103;DHT22;41970;48.774;9.280;2023-04-01T01:17:44;10.50;99.90
56103;DHT22;41970;48.774;9.280;2023-04-01T01:28:29;10.60;99.90
56103;DHT22;41970;48.774;9.280;2023-04-01T01:34:21;10.70;99.90
56103;DHT22;41970;48.774;9.280;2023-04-01T01:36:42;10.70;99.90
56103;DHT22;41970;48.774;9.280;2023-04-01T01:39:11;10.70;99.90
56103;DHT22;41970;48.774;9.280;2023-04-01T01:41:39;10.60;99.90
56103;DHT22;41970;48.774;9.280;2023-04-01T01:44:11;10.60;99.90
56103;DHT22;41970;48.774;9.280;2023-04-01T01:46:38;10.70;99.90
56103;DHT22;41970;48.774;9.280;2023-04-01T01:49:06;10.70;99.90
56103;DHT22;41970;48.774;9.280;2023-04-01T01:51:32;10.70;99.90
56103;DHT22;41970;48.774;9.280;2023-04-01T01:53:59;10.70;99.90
56103;DHT22;41970;48.774;9.280;2023-04-01T01:56:27;10.60;99.90
56103;DHT22;41970;48.774;9.280;2023-04-01T01:59:02;10.60;99.90
56103;DHT22;41970;48.774;9.280;2023-04-01T02:01:32;10.60;99.90
56103;DHT22;41970;48.774;9.280;2023-04-01T02:03:59;10.70;99.90
56103;DHT22;41970;48.774;9.280;2023-04-01T02:06:28;10.70;99.90
56103;DHT22;41970;48.774;9.280;2023-04-01T02:08:59;10.70;99.90
56103;DHT22;41970;48.774;9.280;2023-04-01T02:11:40;10.70;99.90
56103;DHT22;41970;48.774;9.280;2023-04-01T02:14:31;10.70;99.90
56103;DHT22;41970;48.774;9.280;2023-04-01T02:19:33;10.60;99.90
56103;DHT22;41970;48.774;9.280;2023-04-01T02:22:03;10.70;99.90
56103;DHT22;41970;48.774;9.280;2023-04-01T02:24:33;10.60;99.90
56103;DHT22;41970;48.774;9.280;2023-04-01T02:27:01;10.60;99.90
56103;DHT22;41970;48.774;9.280;2023-04-01T02:29:27;10.60;99.90
56103;DHT22;41970;48.774;9.280;2023-04-01T02:31:53;10.60;99.90
56103;DHT22;41970;48.774;9.280;2023-04-01T02:34:21;10.60;99.90
56103;DHT22;41970;48.774;9.280;2023-04-01T02:36:49;10.50;99.90
56103;DHT22;41970;48.774;9.280;2023-04-01T02:39:16;10.50;99.90
56103;DHT22;41970;48.774;9.280;2023-04-01T02:41:43;10.60;99.90
56103;DHT22;41970;48.774;9.280;2023-04-01T02:44:11;10.60;99.90
56103;DHT22;41970;48.774;9.280;2023-04-01T02:46:37;10.60;99.90
56103;DHT22;41970;48.774;9.280;2023-04-01T02:49:03;10.50;99.90
56103;DHT22;41970;48.774;9.280;2023-04-01T02:51:29;10.40;99.90
56103;DHT22;41970;48.774;9.280;2023-04-01T02:53:54;10.40;99.90
56103;DHT22;41970;48.774;9.280;2023-04-01T02:56:20;10.40;99.90
56103;DHT22;41970;48.774;9.280;2023-04-01T02:58:47;10.50;99.90
56103;DHT22;41970;48.774;9.280;2023-04-01T03:01:12;10.50;99.90
56103;DHT22;41970;48.774;9.280;2023-04-01T03:03:38;10.40;99.90
56103;DHT22;41970;48.774;9.280;2023-04-01T03:06:06;10.30;99.90
56103;DHT22;41970;48.774;9.280;2023-04-01T03:08:32;10.20;99.90
56103;DHT22;41970;48.774;9.280;2023-04-01T03:10:58;10.20;99.90
56103;DHT22;41970;48.774;9.280;2023-04-01T03:13:23;10.20;99.90
56103;DHT22;41970;48.774;9.280;2023-04-01T03:15:49;10.20;99.90
56103;DHT22;41970;48.774;9.280;2023-04-01T03:18:15;10.30;99.90
56103;DHT22;41970;48.774;9.280;2023-04-01T03:20:40;10.30;99.90
56103;DHT22;41970;48.774;9.280;2023-04-01T03:23:07;10.30;99.90
56103;DHT22;41970;48.774;9.280;2023-04-01T03:25:33;10.20;99.90
56103;DHT22;41970;48.774;9.280;2023-04-01T03:27:59;10.20;99.90
56103;DHT22;41970;48.774;9.280;2023-04-01T03:30:25;10.00;99.90
56103;DHT22;41970;48.774;9.280;2023-04-01T03:32:52;9.90;99.90
56103;DHT22;41970;48.774;9.280;2023-04-01T03:35:18;9.70;99.90
56103;DHT22;41970;48.774;9.280;2023-04-01T03:37:43;9.70;99.90
56103;DHT22;41970;48.774;9.280;2023-04-01T03:40:10;9.70;99.90
56103;DHT22;41970;48.774;9.280;2023-04-01T03:42:36;9.70;99.90
56103;DHT22;41970;48.774;9.280;2023-04-01T03:45:03;9.80;99.90
56103;DHT22;41970;48.774;9.280;2023-04-01T03:47:29;9.90;99.90
56103;DHT22;41970;48.774;9.280;2023-04-01T03:49:55;9.90;99.90
56103;DHT22;41970;48.774;9.280;2023-04-01T03:52:21;9.90;99.90
56103;DHT22;41970;48.774;9.280;2023-04-01T03:54:46;9.90;99.90
56103;DHT22;41970;48.774;9.280;2023-04-01T03:57:12;9.80;99.90
56103;DHT22;41970;48.774;9.280;2023-04-01T03:59:38;9.90;99.90
56103;DHT22;41970;48.774;9.280;2023-04-01T04:02:04;10.00;99.90
56103;DHT22;41970;48.774;9.280;2023-04-01T04:04:30;10.00;99.90
56103;DHT22;41970;48.774;9.280;2023-04-01T04:06:56;10.00;99.90
56103;DHT22;41970;48.774;9.280;2023-04-01T04:09:22;10.10;99.90
56103;DHT22;41970;48.774;9.280;2023-04-01T04:11:48;10.10;99.90
56103;DHT22;41970;48.774;9.280;2023-04-01T04:14:14;10.00;99.90
56103;DHT22;41970;48.774;9.280;2023-04-01T04:16:40;10.00;99.90
56103;DHT22;41970;48.774;9.280;2023-04-01T04:19:06;10.10;99.90
56103;DHT22;41970;48.774;9.280;2023-04-01T04:21:31;9.80;99.90
56103;DHT22;41970;48.774;9.280;2023-04-01T04:23:59;9.40;99.90
56103;DHT22;41970;48.774;9.280;2023-04-01T04:26:25;9.40;99.90
56103;DHT22;41970;48.774;9.280;2023-04-01T04:28:51;9.40;99.90
56103;DHT22;41970;48.774;9.280;2023-04-01T04:31:22;9.30;99.90
56103;DHT22;41970;48.774;9.280;2023-04-01T04:33:48;9.30;99.90
56103;DHT22;41970;48.774;9.280;2023-04-01T04:36:14;9.20;99.90
56103;DHT22;41970;48.774;9.280;2023-04-01T04:38:40;9.20;99.90
56103;DHT22;41970;48.774;9.280;2023-04-01T04:41:10;9.20;99.90
56103;DHT22;41970;48.774;9.280;2023-04-01T04:43:37;9.30;99.90
56103;DHT22;41970;48.774;9.280;2023-04-01T04:46:10;9.30;99.90
56103;DHT22;41970;48.774;9.280;2023-04-01T04:48:36;9.40;99.90
56103;DHT22;41970;48.774;9.280;2023-04-01T04:51:02;9.50;99.90
56103;DHT22;41970;48.774;9.280;2023-04-01T04:53:29;9.50;99.90
56103;DHT22;41970;48.774;9.280;2023-04-01T04:55:54;9.30;99.90
56103;DHT22;41970;48.774;9.280;2023-04-01T04:58:20;9.40;99.90
56103;DHT22;41970;48.774;9.280;2023-04-01T05:00:46;9.50;99.90
56103;DHT22;41970;48.774;9.280;2023-04-01T05:03:12;9.40;99.90
56103;DHT22;41970;48.774;9.280;2023-04-01T05:05:39;9.30;99.90
56103;DHT22;41970;48.774;9.280;2023-04-01T05:08:05;9.20;99.90
56103;DHT22;41970;48.774;9.280;2023-04-01T05:10:31;9.20;99.90
56103;DHT22;41970;48.774;9.280;2023-04-01T05:12:58;9.20;99.90
56103;DHT22;41970;48.774;9.280;2023-04-01T05:15:24;9.30;99.90
56103;DHT22;41970;48.774;9.280;2023-04-01T05:17:50;9.30;99.90
56103;DHT22;41970;48.774;9.280;2023-04-01T05:20:16;9.30;99.90
56103;DHT22;41970;48.774;9.280;2023-04-01T05:22:42;9.30;99.90
56103;DHT22;41970;48.774;9.280;2023-04-01T05:25:08;9.20;99.90
56103;DHT22;41970;48.774;9.280;2023-04-01T05:27:34;9.30;99.90
56103;DHT22;41970;48.774;9.280;2023-04-01T05:30:00;9.20;99.90
56103;DHT22;41970;48.774;9.280;2023-04-01T05:32:26;9.30;99.90
56103;DHT22;41970;48.774;9.280;2023-04-01T05:34:53;9.20;99.90
56103;DHT22;41970;48.774;9.280;2023-04-01T05:37:19;9.20;99.90
56103;DHT22;41970;48.774;9.280;2023-04-01T05:39:45;9.40;99.90
56103;DHT22;41970;48.774;9.280;2023-04-01T05:42:11;9.40;99.90
56103;DHT22;41970;48.774;9.280;2023-04-01T05:44:37;9.30;99.90
56103;DHT22;41970;48.774;9.280;2023-04-01T05:47:04;9.30;99.90
56103;DHT22;41970;48.774;9.280;2023-04-01T05:49:30;9.40;99.90
56103;DHT22;41970;48.774;9.280;2023-04-01T05:51:57;9.50;99.90
56103;DHT22;41970;48.774;9.280;2023-04-01T05:54:23;9.50;99.90
56103;DHT22;41970;48.774;9.280;2023-04-01T05:56:48;9.50;99.90
56103;DHT22;41970;48.774;9.280;2023-04-01T05:59:14;9.50;99.90
56103;DHT22;41970;48.774;9.280;2023-04-01T06:01:40;9.50;99.90
56103;DHT22;41970;48.774;9.280;2023-04-01T06:04:06;9.40;99.90
56103;DHT22;41970;48.774;9.280;2023-04-01T06:06:33;9.50;99.90
56103;DHT22;41970;48.774;9.280;2023-04-01T06:09:28;9.60;99.90
56103;DHT22;41970;48.774;9.280;2023-04-01T06:30:43;9.70;99.90
56103;DHT22;41970;48.774;9.280;2023-04-01T06:33:46;9.60;99.90
56103;DHT22;41970;48.774;9.280;2023-04-01T06:36:39;9.60;99.90
56103;DHT22;41970;48.774;9.280;2023-04-01T06:45:50;9.80;99.90
56103;DHT22;41970;48.774;9.280;2023-04-01T06:50:55;10.10;99.90
56103;DHT22;41970;48.774;9.280;2023-04-01T06:56:17;10.10;99.90
56103;DHT22;41970;48.774;9.280;2023-04-01T07:01:33;10.30;99.90
56103;DHT22;41970;48.774;9.280;2023-04-01T07:09:16;10.40;99.90
56103;DHT22;41970;48.774;9.280;2023-04-01T07:11:43;10.40;99.90
56103;DHT22;41970;48.774;9.280;2023-04-01T07:14:43;10.50;99.90
56103;DHT22;41970;48.774;9.280;2023-04-01T07:17:16;10.40;99.90
56103;DHT22;41970;48.774;9.280;2023-04-01T07:19:50;10.50;99.90
56103;DHT22;41970;48.774;9.280;2023-04-01T07:22:32;10.50;99.90
56103;DHT22;41970;48.774;9.280;2023-04-01T07:25:16;10.60;99.90
56103;DHT22;41970;48.774;9.280;2023-04-01T07:27:43;10.60;99.90
56103;DHT22;41970;48.774;9.280;2023-04-01T07:30:35;10.60;99.90
56103;DHT22;41970;48.774;9.280;2023-04-01T07:33:20;10.70;99.90
56103;DHT22;41970;48.774;9.280;2023-04-01T07:35:59;10.80;99.90
56103;DHT22;41970;48.774;9.280;2023-04-01T07:41:30;10.70;99.90
56103;DHT22;41970;48.774;9.280;2023-04-01T07:49:14;10.80;99.90
56103;DHT22;41970;48.774;9.280;2023-04-01T07:51:54;10.80;99.90
56103;DHT22;41970;48.774;9.280;2023-04-01T07:54:57;10.80;99.90
56103;DHT22;41970;48.774;9.280;2023-04-01T08:00:37;10.80;99.90
56103;DHT22;41970;48.774;9.280;2023-04-01T08:05:58;10.70;99.90
56103;DHT22;41970;48.774;9.280;2023-04-01T08:11:31;10.80;99.90
56103;DHT22;41970;48.774;9.280;2023-04-01T08:14:13;10.80;99.90
56103;DHT22;41970;48.774;9.280;2023-04-01T08:17:05;10.80;99.90
56103;DHT22;41970;48.774;9.280;2023-04-01T08:22:33;10.90;99.90
56103;DHT22;41970;48.774;9.280;2023-04-01T08:25:04;11.00;99.90
56103;DHT22;41970;48.774;9.280;2023-04-01T08:27:56;11.00;99.90
56103;DHT22;41970;48.774;9.280;2023-04-01T08:30:32;11.00;99.90
56103;DHT22;41970;48.774;9.280;2023-04-01T08:33:06;11.00;99.90
56103;DHT22;41970;48.774;9.280;2023-04-01T08:35:42;11.10;99.90
56103;DHT22;41970;48.774;9.280;2023-04-01T08:38:18;11.00;99.90
56103;DHT22;41970;48.774;9.280;2023-04-01T08:46:21;10.90;99.90
56103;DHT22;41970;48.774;9.280;2023-04-01T09:02:55;10.90;99.90
56103;DHT22;41970;48.774;9.280;2023-04-01T09:14:03;11.00;99.90
56103;DHT22;41970;48.774;9.280;2023-04-01T09:16:42;10.90;99.90
56103;DHT22;41970;48.774;9.280;2023-04-01T09:19:21;10.90;99.90
56103;DHT22;41970;48.774;9.280;2023-04-01T09:22:32;10.80;99.90
56103;DHT22;41970;48.774;9.280;2023-04-01T09:28:20;10.80;99.90
56103;DHT22;41970;48.774;9.280;2023-04-01T09:34:38;10.80;99.90
56103;DHT22;41970;48.774;9.280;2023-04-01T09:39:56;10.90;99.90
56103;DHT22;41970;48.774;9.280;2023-04-01T09:45:01;10.90;99.90
56103;DHT22;41970;48.774;9.280;2023-04-01T09:50:35;10.90;99.90
56103;DHT22;41970;48.774;9.280;2023-04-01T09:53:31;10.90;99.90
56103;DHT22;41970;48.774;9.280;2023-04-01T10:36:09;10.80;99.90
56103;DHT22;41970;48.774;9.280;2023-04-01T10:39:27;10.80;99.90
56103;DHT22;41970;48.774;9.280;2023-04-01T10:48:19;10.90;99.90
56103;DHT22;41970;48.774;9.280;2023-04-01T10:59:31;10.90;99.90
56103;DHT22;41970;48.774;9.280;2023-04-01T11:16:47;10.90;99.90
56103;DHT22;41970;48.774;9.280;2023-04-01T11:37:06;11.10;99.90
56103;DHT22;41970;48.774;9.280;2023-04-01T11:58:19;11.20;99.90
56103;DHT22;41970;48.774;9.280;2023-04-01T12:03:54;11.40;99.90
56103;DHT22;41970;48.774;9.280;2023-04-01T12:09:22;11.40;99.90
56103;DHT22;41970;48.774;9.280;2023-04-01T12:12:07;11.30;99.90
56103;DHT22;41970;48.774;9.280;2023-04-01T12:20:29;11.30;99.90
56103;DHT22;41970;48.774;9.280;2023-04-01T12:36:49;11.10;99.90
56103;DHT22;41970;48.774;9.280;2023-04-01T12:53:39;11.30;99.90
56103;DHT22;41970;48.774;9.280;2023-04-01T12:56:29;11.30;99.90
56103;DHT22;41970;48.774;9.280;2023-04-01T13:02:31;11.40;99.90
56103;DHT22;41970;48.774;9.280;2023-04-01T13:16:24;11.70;99.90
56103;DHT22;41970;48.774;9.280;2023-04-01T13:19:07;11.70;99.90
56103;DHT22;41970;48.774;9.280;2023-04-01T13:30:30;11.60;99.90
56103;DHT22;41970;48.774;9.280;2023-04-01T13:35:51;11.60;99.90
56103;DHT22;41970;48.774;9.280;2023-04-01T13:38:40;11.70;99.90
56103;DHT22;41970;48.774;9.280;2023-04-01T13:44:09;11.80;99.90
56103;DHT22;41970;48.774;9.280;2023-04-01T13:46:41;11.80;99.90
56103;DHT22;41970;48.774;9.280;2023-04-01T14:00:27;11.80;99.90
56103;DHT22;41970;48.774;9.280;2023-04-01T14:11:25;11.80;99.90
56103;DHT22;41970;48.774;9.280;2023-04-01T14:14:13;11.90;99.90
56103;DHT22;41970;48.774;9.280;2023-04-01T14:17:06;11.90;99.90
56103;DHT22;41970;48.774;9.280;2023-04-01T14:22:32;12.00;99.90
56103;DHT22;41970;48.774;9.280;2023-04-01T14:34:09;11.70;99.90
56103;DHT22;41970;48.774;9.280;2023-04-01T14:36:37;11.70;99.90
56103;DHT22;41970;48.774;9.280;2023-04-01T14:39:33;11.70;99.90
56103;DHT22;41970;48.774;9.280;2023-04-01T14:42:18;11.70;99.90
56103;DHT22;41970;48.774;9.280;2023-04-01T14:47:56;11.70;99.90
56103;DHT22;41970;48.774;9.280;2023-04-01T14:50:28;11.70;99.90
56103;DHT22;41970;48.774;9.280;2023-04-01T14:55:46;11.60;99.90
56103;DHT22;41970;48.774;9.280;2023-04-01T14:58:17;11.70;99.90
56103;DHT22;41970;48.774;9.280;2023-04-01T15:03:32;11.70;99.90
56103;DHT22;41970;48.774;9.280;2023-04-01T15:09:17;11.60;99.90
56103;DHT22;41970;48.774;9.280;2023-04-01T15:11:52;11.60;99.90
56103;DHT22;41970;48.774;9.280;2023-04-01T15:14:50;11.70;99.90
56103;DHT22;41970;48.774;9.280;2023-04-01T15:44:46;11.90;99.90
56103;DHT22;41970;48.774;9.280;2023-04-01T15:58:54;11.80;99.90
56103;DHT22;41970;48.774;9.280;2023-04-01T16:13:23;11.90;99.90
56103;DHT22;41970;48.774;9.280;2023-04-01T16:18:59;11.80;99.90
56103;DHT22;41970;48.774;9.280;2023-04-01T16:29:38;11.90;99.90
56103;DHT22;41970;48.774;9.280;2023-04-01T16:32:14;11.90;99.90
56103;DHT22;41970;48.774;9.280;2023-04-01T16:37:53;11.90;99.90
56103;DHT22;41970;48.774;9.280;2023-04-01T16:43:21;12.00;99.90
56103;DHT22;41970;48.774;9.280;2023-04-01T16:51:24;12.10;99.90
56103;DHT22;41970;48.774;9.280;2023-04-01T16:54:02;12.10;99.90
56103;DHT22;41970;48.774;9.280;2023-04-01T16:56:42;12.10;99.90
56103;DHT22;41970;48.774;9.280;2023-04-01T17:02:08;12.00;99.90
56103;DHT22;41970;48.774;9.280;2023-04-01T17:04:44;12.10;99.90
56103;DHT22;41970;48.774;9.280;2023-04-01T17:12:44;12.20;99.90
56103;DHT22;41970;48.774;9.280;2023-04-01T17:21:13;12.30;99.90
56103;DHT22;41970;48.774;9.280;2023-04-01T17:23:50;12.20;99.90
56103;DHT22;41970;48.774;9.280;2023-04-01T17:26:18;12.40;99.90
56103;DHT22;41970;48.774;9.280;2023-04-01T17:28:49;12.40;99.90
56103;DHT22;41970;48.774;9.280;2023-04-01T17:31:37;12.30;99.90
56103;DHT22;41970;48.774;9.280;2023-04-01T17:47:24;12.30;99.90
56103;DHT22;41970;48.774;9.280;2023-04-01T17:50:02;12.30;99.90
56103;DHT22;41970;48.774;9.280;2023-04-01T17:52:45;12.30;99.90
56103;DHT22;41970;48.774;9.280;2023-04-01T17:58:00;12.20;99.90
56103;DHT22;41970;48.774;9.280;2023-04-01T18:01:12;12.20;99.90
56103;DHT22;41970;48.774;9.280;2023-04-01T18:09:40;12.30;99.90
56103;DHT22;41970;48.774;9.280;2023-04-01T18:12:27;12.40;99.90
56103;DHT22;41970;48.774;9.280;2023-04-01T18:17:50;12.30;99.90
56103;DHT22;41970;48.774;9.280;2023-04-01T18:23:19;12.10;99.90
56103;DHT22;41970;48.774;9.280;2023-04-01T18:26:01;11.90;99.90
56103;DHT22;41970;48.774;9.280;2023-04-01T18:28:36;11.90;99.90
56103;DHT22;41970;48.774;9.280;2023-04-01T18:36:40;12.10;99.90
56103;DHT22;41970;48.774;9.280;2023-04-01T18:45:23;12.00;99.90
56103;DHT22;41970;48.774;9.280;2023-04-01T18:50:57;11.90;99.90
56103;DHT22;41970;48.774;9.280;2023-04-01T18:56:08;11.80;99.90
56103;DHT22;41970;48.774;9.280;2023-04-01T18:58:48;11.80;99.90
56103;DHT22;41970;48.774;9.280;2023-04-01T19:02:13;11.70;99.90
56103;DHT22;41970;48.774;9.280;2023-04-01T19:10:21;11.40;99.90
56103;DHT22;41970;48.774;9.280;2023-04-01T19:21:19;11.40;99.90
56103;DHT22;41970;48.774;9.280;2023-04-01T19:32:51;11.10;99.90
56103;DHT22;41970;48.774;9.280;2023-04-01T19:35:42;11.20;99.90
56103;DHT22;41970;48.774;9.280;2023-04-01T19:38:30;11.20;99.90
56103;DHT22;41970;48.774;9.280;2023-04-01T19:46:45;11.30;99.90
56103;DHT22;41970;48.774;9.280;2023-04-01T19:52:20;11.20;99.90
56103;DHT22;41970;48.774;9.280;2023-04-01T20:00:58;11.30;99.90
56103;DHT22;41970;48.774;9.280;2023-04-01T20:03:35;11.20;99.90
56103;DHT22;41970;48.774;9.280;2023-04-01T20:06:34;11.30;99.90
56103;DHT22;41970;48.774;9.280;2023-04-01T20:14:51;11.00;99.90
56103;DHT22;41970;48.774;9.280;2023-04-01T20:20:26;11.20;99.90
56103;DHT22;41970;48.774;9.280;2023-04-01T20:23:02;11.30;99.90
56103;DHT22;41970;48.774;9.280;2023-04-01T20:39:31;11.40;99.90
56103;DHT22;41970;48.774;9.280;2023-04-01T20:45:10;11.30;99.90
56103;DHT22;41970;48.774;9.280;2023-04-01T20:50:53;11.20;99.90
56103;DHT22;41970;48.774;9.280;2023-04-01T20:53:40;10.90;99.90
56103;DHT22;41970;48.774;9.280;2023-04-01T21:07:11;11.00;99.90
56103;DHT22;41970;48.774;9.280;2023-04-01T21:18:30;10.60;99.90
56103;DHT22;41970;48.774;9.280;2023-04-01T21:26:52;10.90;99.90
56103;DHT22;41970;48.774;9.280;2023-04-01T21:32:41;11.10;99.90
56103;DHT22;41970;48.774;9.280;2023-04-01T21:40:54;11.10;99.90
56103;DHT22;41970;48.774;9.280;2023-04-01T22:14:09;11.20;99.90
56103;DHT22;41970;48.774;9.280;2023-04-01T22:16:49;11.30;99.90
56103;DHT22;41970;48.774;9.280;2023-04-01T22:19:24;11.20;99.90
56103;DHT22;41970;48.774;9.280;2023-04-01T22:22:17;11.20;99.90
56103;DHT22;41970;48.774;9.280;2023-04-01T22:27:21;11.10;99.90
56103;DHT22;41970;48.774;9.280;2023-04-01T22:32:48;11.20;99.90
56103;DHT22;41970;48.774;9.280;2023-04-01T22:40:34;11.10;99.90
56103;DHT22;41970;48.774;9.280;2023-04-01T22:43:15;11.00;99.90
56103;DHT22;41970;48.774;9.280;2023-04-01T22:48:40;11.00;99.90
56103;DHT22;41970;48.774;9.280;2023-04-01T22:51:11;10.90;99.90
56103;DHT22;41970;48.774;9.280;2023-04-01T22:54:04;11.00;99.90
56103;DHT22;41970;48.774;9.280;2023-04-01T22:56:37;11.10;99.90
56103;DHT22;41970;48.774;9.280;2023-04-01T22:59:10;11.10;99.90
56103;DHT22;41970;48.774;9.280;2023-04-01T23:01:44;11.10;99.90
56103;DHT22;41970;48.774;9.280;2023-04-01T23:04:15;11.10;99.90
56103;DHT22;41970;48.774;9.280;2023-04-01T23:06:48;11.10;99.90
56103;DHT22;41970;48.774;9.280;2023-04-01T23:09:23;11.20;99.90
56103;DHT22;41970;48.774;9.280;2023-04-01T23:11:56;11.10;99.90
56103;DHT22;41970;48.774;9.280;2023-04-01T23:14:28;11.10;99.90
56103;DHT22;41970;48.774;9.280;2023-04-01T23:19:57;11.10;99.90
56103;DHT22;41970;48.774;9.280;2023-04-01T23:25:32;11.10;99.90
56103;DHT22;41970;48.774;9.280;2023-04-01T23:31:03;10.70;99.90
56103;DHT22;41970;48.774;9.280;2023-04-01T23:33:30;10.70;99.90
56103;DHT22;41970;48.774;9.280;2023-04-01T23:36:11;10.70;99.90
56103;DHT22;41970;48.774;9.280;2023-04-01T23:38:41;10.70;99.90
56103;DHT22;41970;48.774;9.280;2023-04-01T23:41:27;10.70;99.90
56103;DHT22;41970;48.774;9.280;2023-04-01T23:44:04;10.70;99.90
56103;DHT22;41970;48.774;9.280;2023-04-01T23:46:33;10.60;99.90
56103;DHT22;41970;48.774;9.280;2023-04-01T23:49:01;10.50;99.90
56103;DHT22;41970;48.774;9.280;2023-04-01T23:51:35;10.30;99.90
56103;DHT22;41970;48.774;9.280;2023-04-01T23:54:10;10.20;99.90
56103;DHT22;41970;48.774;9.280;2023-04-01T23:56:44;10.20;99.90
56103;DHT22;41970;48.774;9.280;2023-04-01T23:59:37;10.30;99.90
